Dakar International Airport

About
Name: Dakar International Airport
Identifier:  DKR/GOOY
Local Time:  19. Sep 02:49 GMT
Location
Statistics
Flights per Day:
0 flights
Flights delayed:
0% (0 flights per day delayed)
Delay Average: 30 minutes
Current Weather
 29 C (Humidity: 83%)
  4kt (7km/h / 4mph) from 220°
  Scattered clouds at 1,300 feet (396 meter)
  9km (6 mi.)
 METAR GOOY 190000Z 22004KT 9999 SCT013 29/26 Q1013

Current Delays

Departures
N/A
Arrivals
N/A

Destinations

Top Destinations
Airport Flights
per week
Seats
per week
  Dakar (DSS) 0 - 0 0

Airlines & Planes

Top Airlines
Airline Flights
per Day
Seats
per Day
Air Senegal 0 -
Top Plane Types
Model Flights Seats
ATR 76-600 0.0/day - 0